Lopez Island, WA (98261)

6:50 PM PDT on September 16, 2014 (GMT -0700)
SHARK REEF | Change Station
CLOSE
Current Station
Personal Weather Station
Location: Lopez Island, WA
Elevation: 144 ft
Nearby Weather Stations

Elev 144 ft 48.47 °N, 122.94 °W | Updated 2 minutes ago

Partly Cloudy
Partly Cloudy
62.2 °F
Feels Like 62.2 °F
N
1.7
Wind Variable Wind from WNW

Today
High -- | Low -- °F
--% Chance of Precip.
Yesterday
High -- | Low -- °F
Precip. -- in
6:49 AM 7:21 PM
Last Quarter, 40% visible
Pressure 29.86 in
Visibility 10.0 miles
Clouds Clear
Dew Point 54 °F
Humidity 76%
Rainfall 0.00 in
Snow Depth 0 in , 0 in , 0 in
UV 1 out of 12
Pollen 1.10 out of 12
Air Quality Not available.
Flu Activity Not available.
METAR KFHR 170053Z AUTO 10005KT 10SM CLR 15/11 A2986 RMK AO2 SLP110 T01500111

More Conditions Fewer Conditions

Pressure 29.86 in
Visibility 10.0 miles
Clouds Clear
Dew Point 54 °F
Humidity 76%
Rainfall 0.00 in
Snow Depth 0 in , 0 in , 0 in
UV 1 out of 12
Pollen 1.10 out of 12
Air Quality Not available.
Flu Activity Not available.
METAR KFHR 170053Z AUTO 10005KT 10SM CLR 15/11 A2986 RMK AO2 SLP110 T01500111

More Conditions Fewer Conditions

10-Day Weather Forecast

Almanac

Astronomy

Sep. 16, 2014 Rise Set
Actual Time 6:49 AM PDT 7:21 PM PDT
Civil Twilight 6:18 AM PDT 7:52 PM PDT
Nautical Twilight 5:40 AM PDT 8:30 PM PDT
Astronomical Twilight 5:01 AM PDT 9:09 PM PDT
Moon No Moon Rise 3:10 PM PDT (9/16)
Length of Visible Light 13h 34m
Length of Day
12h 31m
Tomorrow will be 3m 30s shorter.
Last Quarter, 40% of the Moon is Illuminated
Today
Last Quarter
Sep 24
New
Oct 1
First Quarter
Oct 8
Full
Oct 15
Last Quarter

Today's Extremes

State Highs State Lows

Community

WunderPhotos

Upload Photos

1,753,945 photos uploaded!

Nearby

Snow Depth

Station Depth Elevation
Sentinel Butte 0 in 4920 ft
Morse Lake 0 in 5400 ft
Lone Pine 0 in 3800 ft
Rainy Pass 0 in 4780 ft
Meadows Pass 0 in 3500 ft

Earthquake Activity

City Distance Mag. Time & Date
No recent earthquake activity has been reported nearby.
Minimum magnitude displayed is 2.5.

Coastal Water Temperatures

Place Temperature
Port Townsend, WA 53.1 °F
Friday Harbor, WA 53.1 °F
Port Angeles, WA 51.1 °F

Nearby Weather Stations